createdAt,value
2018-02-09T00:00:54.773Z,13.03
2018-02-09T00:03:21.441Z,10.10
2018-02-09T00:05:47.611Z,7.67
2018-02-09T00:08:14.050Z,8.73
2018-02-09T00:10:40.352Z,8.50
2018-02-09T00:13:06.507Z,9.37
2018-02-09T00:15:32.723Z,9.23
2018-02-09T00:17:58.900Z,9.27
2018-02-09T00:20:25.064Z,9.23
2018-02-09T00:22:51.618Z,8.30
2018-02-09T00:25:17.840Z,9.80
2018-02-09T00:27:44.042Z,10.77
2018-02-09T00:30:10.309Z,7.27
2018-02-09T00:32:36.483Z,10.33
2018-02-09T00:35:02.663Z,10.37
2018-02-09T00:37:28.893Z,8.43
2018-02-09T00:39:55.059Z,8.00
2018-02-09T00:42:21.231Z,8.07
2018-02-09T00:44:47.819Z,8.30
2018-02-09T00:47:13.973Z,6.10
2018-02-09T00:49:40.135Z,9.70
2018-02-09T00:52:06.379Z,11.43
2018-02-09T00:54:32.899Z,9.03
2018-02-09T00:56:59.330Z,11.90
2018-02-09T00:59:25.912Z,9.40
2018-02-09T01:01:52.072Z,8.80
2018-02-09T01:04:18.214Z,8.83
2018-02-09T01:06:45.375Z,9.23
2018-02-09T01:09:11.561Z,7.50
2018-02-09T01:11:37.745Z,10.43
2018-02-09T01:14:04.365Z,7.50
2018-02-09T01:16:30.512Z,11.60
2018-02-09T01:18:56.686Z,7.70
2018-02-09T01:21:22.897Z,8.30
2018-02-09T01:23:49.088Z,11.33
2018-02-09T01:26:15.320Z,15.03
2018-02-09T01:28:41.485Z,9.50
2018-02-09T01:31:07.662Z,15.73
2018-02-09T01:33:34.366Z,8.10
2018-02-09T01:36:00.547Z,7.80
2018-02-09T01:38:26.790Z,12.30
2018-02-09T01:40:53.046Z,8.07
2018-02-09T01:43:19.210Z,7.77
2018-02-09T01:45:45.376Z,7.43
2018-02-09T01:48:11.622Z,9.90
2018-02-09T01:50:37.813Z,8.83
2018-02-09T01:53:04.013Z,11.50
2018-02-09T01:55:30.548Z,7.67
2018-02-09T01:57:56.723Z,9.33
2018-02-09T02:00:23.371Z,8.40
2018-02-09T02:02:49.535Z,8.17
2018-02-09T02:05:15.721Z,9.83
2018-02-09T02:07:42.195Z,7.73
2018-02-09T02:10:08.378Z,11.03
2018-02-09T02:12:34.573Z,8.30
2018-02-09T02:15:00.805Z,10.03
2018-02-09T02:17:26.994Z,9.00
2018-02-09T02:19:53.144Z,9.93
2018-02-09T02:22:19.382Z,9.00
2018-02-09T02:24:45.561Z,8.90
2018-02-09T02:27:11.725Z,7.67
2018-02-09T02:29:37.918Z,6.43
2018-02-09T02:32:04.409Z,8.77
2018-02-09T02:34:30.607Z,10.77
2018-02-09T02:36:56.916Z,7.97
2018-02-09T02:39:23.127Z,11.87
2018-02-09T02:41:49.602Z,9.67
2018-02-09T02:44:15.836Z,8.17
2018-02-09T02:46:42.371Z,8.30
2018-02-09T02:49:08.587Z,9.80
2018-02-09T02:51:34.974Z,8.00
2018-02-09T02:54:01.136Z,7.67
2018-02-09T02:56:27.312Z,7.00
2018-02-09T02:58:53.525Z,9.30
2018-02-09T03:01:19.933Z,8.53
2018-02-09T03:03:46.086Z,9.20
2018-02-09T03:06:12.655Z,11.27
2018-02-09T03:08:38.847Z,10.50
2018-02-09T03:11:04.997Z,8.23
2018-02-09T03:13:31.209Z,10.87
2018-02-09T03:15:57.446Z,10.53
2018-02-09T03:18:23.610Z,9.23
2018-02-09T03:20:49.845Z,9.17
2018-02-09T03:23:16.300Z,8.83
2018-02-09T03:25:42.477Z,7.50
2018-02-09T03:28:08.690Z,7.27
2018-02-09T03:30:34.842Z,9.67
2018-02-09T03:33:00.989Z,8.50
2018-02-09T03:35:27.210Z,10.70
2018-02-09T03:37:53.417Z,8.40
2018-02-09T03:40:19.680Z,8.43
2018-02-09T03:42:45.906Z,10.77
2018-02-09T03:45:12.089Z,8.00
2018-02-09T03:47:38.283Z,9.63
2018-02-09T03:50:04.858Z,9.97
2018-02-09T03:52:31.009Z,6.20
2018-02-09T03:54:57.157Z,8.60
2018-02-09T03:57:23.740Z,10.00
2018-02-09T03:59:49.968Z,7.00
2018-02-09T04:02:16.460Z,12.27
2018-02-09T04:04:42.717Z,8.07
2018-02-09T04:07:08.908Z,9.73
2018-02-09T04:09:35.082Z,10.23
2018-02-09T04:12:01.650Z,7.83
2018-02-09T04:14:28.110Z,9.07
2018-02-09T04:16:54.284Z,11.27
2018-02-09T04:19:20.772Z,8.23
2018-02-09T04:21:46.985Z,7.30
2018-02-09T04:24:13.143Z,20.23
2018-02-09T04:26:39.385Z,7.30
2018-02-09T04:29:05.890Z,9.10
2018-02-09T04:31:32.324Z,7.73
2018-02-09T04:33:58.857Z,8.07
2018-02-09T04:36:25.038Z,9.03
2018-02-09T04:38:51.257Z,9.87
2018-02-09T04:41:17.439Z,8.77
2018-02-09T04:43:43.596Z,12.77
2018-02-09T04:46:09.822Z,9.93
2018-02-09T04:48:35.983Z,8.07
2018-02-09T04:51:02.169Z,11.63
2018-02-09T04:53:28.389Z,9.13
2018-02-09T04:55:54.574Z,7.80
2018-02-09T04:58:20.748Z,8.57
2018-02-09T05:00:46.932Z,8.20
2018-02-09T05:03:13.104Z,7.57
2018-02-09T05:05:39.341Z,7.10
2018-02-09T05:08:05.520Z,6.97
2018-02-09T05:10:31.668Z,8.60
2018-02-09T05:12:57.921Z,9.37
2018-02-09T05:15:24.110Z,8.17
2018-02-09T05:17:50.634Z,8.23
2018-02-09T05:20:16.813Z,6.47
2018-02-09T05:22:42.988Z,8.63
2018-02-09T05:25:09.450Z,9.23
2018-02-09T05:27:35.612Z,7.20
2018-02-09T05:30:01.854Z,10.17
2018-02-09T05:32:28.025Z,8.40
2018-02-09T05:34:54.222Z,7.87
2018-02-09T05:37:20.702Z,7.23
2018-02-09T05:39:46.876Z,8.20
2018-02-09T05:42:13.075Z,8.23
2018-02-09T05:44:39.283Z,10.13
2018-02-09T05:47:05.822Z,5.97
2018-02-09T05:49:32.423Z,10.27
2018-02-09T05:51:59.012Z,7.40
2018-02-09T05:54:26.326Z,19.57
2018-02-09T05:56:52.930Z,8.43
2018-02-09T05:59:19.470Z,11.17
2018-02-09T06:01:46.248Z,8.17
2018-02-09T06:04:12.830Z,11.33
2018-02-09T06:06:39.336Z,9.67
2018-02-09T06:09:05.916Z,9.17
2018-02-09T06:11:32.561Z,8.13
2018-02-09T06:13:58.745Z,12.20
2018-02-09T06:16:24.960Z,10.83
2018-02-09T06:18:51.484Z,10.10
2018-02-09T06:21:17.946Z,21.53
2018-02-09T06:23:44.398Z,14.37
2018-02-09T06:26:10.773Z,20.87
2018-02-09T06:28:37.016Z,7.77
2018-02-09T06:31:03.204Z,12.87
2018-02-09T06:33:29.458Z,7.70
2018-02-09T06:35:55.675Z,10.33
2018-02-09T06:38:21.848Z,12.17
2018-02-09T06:40:48.360Z,8.67
2018-02-09T06:43:14.577Z,11.03
2018-02-09T06:45:40.767Z,11.50
2018-02-09T06:48:06.998Z,9.87
2018-02-09T06:50:33.212Z,14.50
2018-02-09T06:52:59.446Z,25.53
2018-02-09T06:55:25.627Z,22.80
2018-02-09T06:57:51.816Z,9.60
2018-02-09T07:00:18.027Z,12.90
2018-02-09T07:02:44.617Z,10.60
2018-02-09T07:05:11.147Z,11.07
2018-02-09T07:07:37.337Z,10.97
2018-02-09T07:10:03.562Z,16.40
2018-02-09T07:12:30.147Z,11.07
2018-02-09T07:14:56.334Z,22.10
2018-02-09T07:17:22.587Z,30.60
2018-02-09T07:19:48.762Z,29.80
2018-02-09T07:22:14.938Z,15.83
2018-02-09T07:24:41.149Z,29.03
2018-02-09T07:27:07.388Z,24.20
2018-02-09T07:29:33.544Z,18.23
2018-02-09T07:31:59.788Z,16.17
2018-02-09T07:34:25.962Z,15.23
2018-02-09T07:36:52.425Z,12.70
2018-02-09T07:39:19.020Z,11.10
2018-02-09T07:41:45.461Z,30.50
2018-02-09T07:44:12.028Z,13.13
2018-02-09T07:46:38.281Z,15.90
2018-02-09T07:49:04.792Z,25.47
2018-02-09T07:51:30.969Z,13.17
2018-02-09T07:53:57.230Z,14.80
2018-02-09T07:58:55.084Z,16.80
2018-02-09T08:01:21.246Z,16.20
2018-02-09T08:03:47.493Z,10.10
2018-02-09T08:06:13.667Z,9.93
2018-02-09T08:08:39.845Z,14.50
2018-02-09T08:11:06.276Z,16.37
2018-02-09T08:13:32.443Z,13.07
2018-02-09T08:15:58.938Z,13.60
2018-02-09T08:18:25.188Z,14.40
2018-02-09T08:20:51.383Z,12.33
2018-02-09T08:23:17.541Z,11.77
2018-02-09T08:25:44.046Z,12.00
2018-02-09T08:28:10.211Z,13.37
2018-02-09T08:30:36.380Z,16.00
2018-02-09T08:33:02.606Z,11.50
2018-02-09T08:35:28.783Z,9.93
2018-02-09T08:37:54.953Z,9.23
2018-02-09T08:40:21.160Z,10.93
2018-02-09T08:42:47.341Z,8.80
2018-02-09T08:45:13.877Z,17.23
2018-02-09T08:47:40.411Z,12.00
2018-02-09T08:50:06.949Z,12.00
2018-02-09T08:52:33.480Z,10.20
2018-02-09T08:54:59.649Z,13.60
2018-02-09T08:57:25.826Z,11.77
2018-02-09T08:59:52.415Z,9.17
2018-02-09T09:02:18.911Z,12.43
2018-02-09T09:04:45.340Z,10.87
2018-02-09T09:07:13.221Z,14.00
2018-02-09T09:09:39.740Z,13.40
2018-02-09T09:12:05.942Z,9.63
2018-02-09T09:14:32.811Z,18.70
2018-02-09T09:16:58.981Z,10.57
2018-02-09T09:19:25.149Z,19.97
2018-02-09T09:21:51.398Z,10.77
2018-02-09T09:24:17.586Z,11.43
2018-02-09T09:26:43.758Z,13.83
2018-02-09T09:29:10.031Z,11.90
2018-02-09T09:31:36.236Z,8.13
2018-02-09T09:34:02.412Z,9.93
2018-02-09T09:36:28.657Z,11.03
2018-02-09T09:38:54.853Z,9.20
2018-02-09T09:41:21.047Z,12.90
2018-02-09T09:43:47.297Z,10.97
2018-02-09T09:46:13.496Z,9.50
2018-02-09T09:48:40.003Z,11.77
2018-02-09T09:51:06.241Z,11.43
2018-02-09T09:53:32.437Z,9.80
2018-02-09T09:55:58.639Z,10.30
2018-02-09T09:58:25.269Z,10.07
2018-02-09T10:00:51.471Z,10.10
2018-02-09T10:03:17.669Z,10.67
2018-02-09T10:05:43.863Z,12.27
2018-02-09T10:08:10.029Z,11.17
2018-02-09T10:10:36.258Z,8.23
2018-02-09T10:13:02.436Z,11.70
2018-02-09T10:15:28.639Z,15.00
2018-02-09T10:17:54.880Z,14.43
2018-02-09T10:20:21.078Z,17.10
2018-02-09T10:22:47.508Z,12.43
2018-02-09T10:25:13.824Z,14.00
2018-02-09T10:27:40.041Z,18.87
2018-02-09T10:30:06.288Z,18.47
2018-02-09T10:32:32.466Z,11.17
2018-02-09T10:34:58.664Z,10.87
2018-02-09T10:37:24.897Z,11.30
2018-02-09T10:39:51.412Z,12.90
2018-02-09T10:44:53.740Z,9.37
2018-02-09T10:47:20.181Z,9.67
2018-02-09T10:49:46.343Z,10.07
2018-02-09T10:52:12.565Z,10.87
2018-02-09T10:54:38.751Z,11.50
2018-02-09T10:57:05.152Z,12.53
2018-02-09T10:59:31.685Z,9.80
2018-02-09T11:01:57.867Z,14.23
2018-02-09T11:04:24.031Z,8.03
2018-02-09T11:06:50.264Z,11.43
2018-02-09T11:09:22.498Z,11.83
2018-02-09T11:11:49.071Z,13.37
2018-02-09T11:14:15.602Z,11.27
2018-02-09T11:16:41.820Z,10.07
2018-02-09T11:19:08.259Z,11.00
2018-02-09T11:21:34.691Z,20.33
2018-02-09T11:24:00.859Z,11.43
2018-02-09T11:26:27.357Z,8.83
2018-02-09T11:28:53.552Z,10.50
2018-02-09T11:31:19.732Z,10.93
2018-02-09T11:33:53.034Z,12.90
2018-02-09T11:36:19.201Z,10.47
2018-02-09T11:38:45.357Z,15.50
2018-02-09T11:41:11.996Z,21.43
2018-02-09T11:43:38.181Z,31.13
2018-02-09T11:46:04.761Z,17.93
2018-02-09T11:48:31.040Z,14.37
2018-02-09T11:50:57.313Z,12.50
2018-02-09T11:53:23.488Z,19.37
2018-02-09T11:55:50.042Z,12.47
2018-02-09T11:58:16.237Z,12.93
2018-02-09T12:00:42.432Z,10.47
2018-02-09T12:03:09.013Z,8.87
2018-02-09T12:05:35.198Z,13.80
2018-02-09T12:08:01.373Z,8.93
2018-02-09T12:10:27.597Z,10.37
2018-02-09T12:12:53.790Z,9.50
2018-02-09T12:15:20.316Z,9.10
2018-02-09T12:17:46.527Z,14.30
2018-02-09T12:20:12.737Z,10.13
2018-02-09T12:22:38.930Z,12.73
2018-02-09T12:25:05.485Z,10.43
2018-02-09T12:27:31.968Z,8.13
2018-02-09T12:29:58.156Z,10.47
2018-02-09T12:32:24.809Z,12.10
2018-02-09T12:34:51.265Z,11.67
2018-02-09T12:37:17.440Z,9.70
2018-02-09T12:39:43.639Z,14.00
2018-02-09T12:42:10.199Z,8.57
2018-02-09T12:44:36.374Z,10.10
2018-02-09T12:47:02.596Z,10.60
2018-02-09T12:49:28.845Z,11.00
2018-02-09T12:51:55.019Z,8.57
2018-02-09T12:54:21.499Z,13.10
2018-02-09T12:56:47.794Z,9.27
2018-02-09T12:59:13.978Z,9.70
2018-02-09T13:01:40.208Z,7.97
2018-02-09T13:04:06.440Z,10.90
2018-02-09T13:06:32.893Z,11.60
2018-02-09T13:08:59.058Z,9.87
2018-02-09T13:11:25.313Z,10.40
2018-02-09T13:13:51.570Z,11.70
2018-02-09T13:16:17.741Z,16.00
2018-02-09T13:18:49.199Z,16.37
2018-02-09T13:21:15.749Z,24.80
2018-02-09T13:23:54.218Z,21.17
2018-02-09T13:26:20.386Z,20.23
2018-02-09T13:28:57.872Z,31.43
2018-02-09T13:31:24.061Z,21.10
2018-02-09T13:33:50.302Z,31.10
2018-02-09T13:36:22.468Z,62.47
2018-02-09T13:38:48.659Z,32.33
2018-02-09T13:41:14.863Z,47.57
2018-02-09T13:43:41.123Z,33.93
2018-02-09T13:46:07.359Z,76.43
2018-02-09T13:48:33.578Z,28.10
2018-02-09T13:51:00.079Z,44.87
2018-02-09T13:53:26.248Z,35.27
2018-02-09T13:55:52.422Z,27.43
2018-02-09T13:58:18.641Z,54.63
2018-02-09T14:00:45.196Z,29.70
2018-02-09T14:03:11.731Z,26.43
2018-02-09T14:05:37.963Z,31.37
2018-02-09T14:08:04.193Z,26.17
2018-02-09T14:10:30.809Z,30.03
2018-02-09T14:12:56.997Z,46.27
2018-02-09T14:15:23.184Z,20.70
2018-02-09T14:17:49.411Z,33.47
2018-02-09T14:20:15.590Z,23.93
2018-02-09T14:22:42.217Z,29.77
2018-02-09T14:25:08.410Z,29.03
2018-02-09T14:27:34.646Z,21.97
2018-02-09T14:30:01.104Z,25.17
2018-02-09T14:32:27.306Z,17.40
2018-02-09T14:34:53.477Z,35.97
2018-02-09T14:37:19.714Z,20.63
2018-02-09T14:39:46.161Z,27.20
2018-02-09T14:42:12.343Z,15.43
2018-02-09T14:44:38.561Z,20.63
2018-02-09T14:47:04.753Z,22.90
2018-02-09T14:49:31.187Z,23.07
2018-02-09T14:51:57.464Z,20.27
2018-02-09T14:54:23.950Z,13.53
2018-02-09T14:56:50.116Z,33.27
2018-02-09T14:59:16.317Z,15.37
2018-02-09T15:01:42.532Z,25.20
2018-02-09T15:04:08.703Z,24.07
2018-02-09T15:06:35.202Z,19.10
2018-02-09T15:09:01.674Z,19.30
2018-02-09T15:11:27.850Z,17.37
2018-02-09T15:13:54.064Z,16.13
2018-02-09T15:16:20.310Z,14.93
2018-02-09T15:18:46.517Z,18.00
2018-02-09T15:21:12.709Z,17.10
2018-02-09T15:23:38.916Z,15.20
2018-02-09T15:26:05.199Z,16.57
2018-02-09T15:28:31.664Z,16.97
2018-02-09T15:30:58.197Z,15.70
2018-02-09T15:33:24.402Z,16.10
2018-02-09T15:35:50.692Z,14.70
2018-02-09T15:38:16.940Z,18.80
2018-02-09T15:40:43.137Z,20.23
2018-02-09T15:43:09.384Z,13.63
2018-02-09T15:45:35.634Z,16.20
2018-02-09T15:48:02.102Z,15.03
2018-02-09T15:50:28.637Z,14.60
2018-02-09T15:52:54.870Z,18.60
2018-02-09T15:55:21.395Z,17.47
2018-02-09T15:57:47.937Z,20.03
2018-02-09T16:00:14.200Z,12.60
2018-02-09T16:02:40.698Z,19.10
2018-02-09T16:05:06.934Z,14.43
2018-02-09T16:07:33.462Z,19.30
2018-02-09T16:09:59.637Z,16.87
2018-02-09T16:12:25.797Z,13.50
2018-02-09T16:14:52.421Z,14.53
2018-02-09T16:17:18.583Z,16.03
2018-02-09T16:19:45.120Z,14.93
2018-02-09T16:22:11.340Z,15.67
2018-02-09T16:24:37.512Z,14.90
2018-02-09T16:27:03.700Z,12.73
2018-02-09T16:29:30.282Z,15.10
2018-02-09T16:31:56.448Z,16.70
2018-02-09T16:34:22.639Z,14.63
2018-02-09T16:36:48.885Z,12.17
2018-02-09T16:39:15.071Z,17.03
2018-02-09T16:41:41.241Z,23.97
2018-02-09T16:44:07.490Z,12.07
2018-02-09T16:46:33.673Z,11.33
2018-02-09T16:49:00.157Z,12.97
2018-02-09T16:51:26.674Z,12.00
2018-02-09T16:53:52.859Z,13.77
2018-02-09T16:56:19.464Z,14.10
2018-02-09T16:58:45.684Z,10.80
2018-02-09T17:01:11.836Z,12.27
2018-02-09T17:03:38.346Z,19.63
2018-02-09T17:06:04.553Z,12.00
2018-02-09T17:08:30.700Z,15.30
2018-02-09T17:10:56.920Z,11.77
2018-02-09T17:13:23.080Z,13.47
2018-02-09T17:15:49.265Z,12.07
2018-02-09T17:18:15.901Z,14.33
2018-02-09T17:20:42.059Z,11.70
2018-02-09T17:23:08.256Z,12.40
2018-02-09T17:25:34.472Z,10.53
2018-02-09T17:28:00.629Z,9.00
2018-02-09T17:30:26.809Z,14.57
2018-02-09T17:32:53.048Z,10.23
2018-02-09T17:35:19.300Z,11.43
2018-02-09T17:37:45.475Z,12.33
2018-02-09T17:40:11.717Z,11.83
2018-02-09T17:42:37.880Z,9.90
2018-02-09T17:45:04.069Z,15.00
2018-02-09T17:47:30.969Z,10.33
2018-02-09T17:49:57.155Z,9.70
2018-02-09T17:52:23.436Z,11.90
2018-02-09T17:54:49.688Z,11.87
2018-02-09T17:57:15.881Z,10.50
2018-02-09T17:59:42.058Z,12.73
2018-02-09T18:02:08.295Z,14.60
2018-02-09T18:04:34.772Z,15.93
2018-02-09T18:07:00.963Z,9.40
2018-02-09T18:09:27.184Z,11.93
2018-02-09T18:11:53.369Z,10.57
2018-02-09T18:14:19.603Z,14.67
2018-02-09T18:16:45.885Z,10.10
2018-02-09T18:19:12.045Z,11.17
2018-02-09T18:21:38.221Z,14.07
2018-02-09T18:24:04.400Z,8.50
2018-02-09T18:26:30.548Z,10.77
2018-02-09T18:28:56.767Z,10.50
2018-02-09T18:31:23.284Z,9.03
2018-02-09T18:33:49.490Z,9.07
2018-02-09T18:36:16.039Z,10.80
2018-02-09T18:38:42.207Z,10.30
2018-02-09T18:41:08.384Z,11.30
2018-02-09T18:43:34.592Z,12.20
2018-02-09T18:46:00.752Z,11.53
2018-02-09T18:48:26.968Z,16.20
2018-02-09T18:50:53.160Z,12.50
2018-02-09T18:53:19.354Z,9.97
2018-02-09T18:55:45.525Z,10.63
2018-02-09T18:58:11.993Z,11.17
2018-02-09T19:00:38.188Z,10.87
2018-02-09T19:03:04.345Z,8.63
2018-02-09T19:05:30.561Z,10.90
2018-02-09T19:07:56.808Z,11.90
2018-02-09T19:10:22.978Z,11.27
2018-02-09T19:12:49.172Z,9.93
2018-02-09T19:15:15.694Z,8.30
2018-02-09T19:17:41.878Z,12.80
2018-02-09T19:20:08.044Z,12.30
2018-02-09T19:22:41.377Z,9.10
2018-02-09T19:25:07.891Z,9.90
2018-02-09T19:27:34.140Z,10.13
2018-02-09T19:30:00.304Z,9.90
2018-02-09T19:32:26.546Z,11.43
2018-02-09T19:34:53.168Z,10.87
2018-02-09T19:37:19.321Z,11.87
2018-02-09T19:39:45.514Z,10.17
2018-02-09T19:42:11.729Z,13.20
2018-02-09T19:44:37.942Z,10.30
2018-02-09T19:47:04.177Z,7.60
2018-02-09T19:49:30.387Z,8.70
2018-02-09T19:51:56.582Z,10.40
2018-02-09T19:54:22.826Z,8.93
2018-02-09T19:56:48.987Z,10.53
2018-02-09T19:59:15.477Z,10.53
2018-02-09T20:01:41.718Z,8.83
2018-02-09T20:04:07.900Z,8.50
2018-02-09T20:06:34.093Z,9.30
2018-02-09T20:09:00.591Z,8.73
2018-02-09T20:11:26.757Z,12.53
2018-02-09T20:13:52.945Z,9.50
2018-02-09T20:16:19.483Z,10.23
2018-02-09T20:18:45.650Z,8.50
2018-02-09T20:21:11.805Z,9.23
2018-02-09T20:23:38.378Z,9.67
2018-02-09T20:26:04.935Z,9.43
2018-02-09T20:28:31.116Z,11.00
2018-02-09T20:30:57.273Z,8.03
2018-02-09T20:33:23.495Z,8.10
2018-02-09T20:35:49.675Z,9.83
2018-02-09T20:38:16.155Z,10.47
2018-02-09T20:40:42.995Z,10.33
2018-02-09T20:43:09.148Z,9.47
2018-02-09T20:45:35.336Z,7.97
2018-02-09T20:48:01.959Z,12.23
2018-02-09T20:50:28.421Z,9.97
2018-02-09T20:52:54.614Z,9.67
2018-02-09T20:55:20.863Z,9.97
2018-02-09T20:57:47.101Z,9.83
2018-02-09T21:00:13.331Z,8.40
2018-02-09T21:02:39.868Z,8.17
2018-02-09T21:05:06.403Z,8.80
2018-02-09T21:07:32.605Z,10.83
2018-02-09T21:09:58.789Z,10.03
2018-02-09T21:12:25.020Z,8.40
2018-02-09T21:14:51.194Z,8.03
2018-02-09T21:17:17.406Z,8.30
2018-02-09T21:19:43.650Z,9.23
2018-02-09T21:22:09.850Z,8.03
2018-02-09T21:24:36.333Z,10.27
2018-02-09T21:27:02.545Z,13.87
2018-02-09T21:29:28.759Z,10.50
2018-02-09T21:31:55.219Z,10.37
2018-02-09T21:34:21.754Z,7.50
2018-02-09T21:36:47.899Z,8.20
2018-02-09T21:39:14.058Z,9.40
2018-02-09T21:41:40.292Z,9.77
2018-02-09T21:44:06.503Z,7.83
2018-02-09T21:46:32.674Z,9.40
2018-02-09T21:48:58.918Z,8.50
2018-02-09T21:51:25.095Z,9.67
2018-02-09T21:53:51.277Z,7.83
2018-02-09T21:56:17.872Z,8.00
2018-02-09T21:58:44.348Z,7.60
2018-02-09T22:01:10.528Z,8.17
2018-02-09T22:03:36.744Z,8.00
2018-02-09T22:06:03.240Z,7.10
2018-02-09T22:08:29.433Z,8.20
2018-02-09T22:10:55.644Z,7.70
2018-02-09T22:13:21.831Z,8.70
2018-02-09T22:15:48.417Z,11.57
2018-02-09T22:18:14.610Z,8.83
2018-02-09T22:20:41.119Z,7.97
2018-02-09T22:23:08.060Z,8.40
2018-02-09T22:25:34.223Z,7.40
2018-02-09T22:28:00.724Z,8.67
2018-02-09T22:30:26.964Z,8.40
2018-02-09T22:32:53.144Z,8.87
2018-02-09T22:35:19.343Z,9.97
2018-02-09T22:37:45.581Z,8.50
2018-02-09T22:40:12.070Z,7.20
2018-02-09T22:45:10.081Z,11.37
2018-02-09T22:47:36.303Z,7.23
2018-02-09T22:50:02.454Z,7.67
2018-02-09T22:52:28.676Z,8.30
2018-02-09T22:54:55.173Z,10.90
2018-02-09T22:57:21.567Z,9.50
2018-02-09T22:59:47.798Z,9.10
2018-02-09T23:02:14.008Z,7.73
2018-02-09T23:04:40.199Z,11.90
2018-02-09T23:07:06.415Z,8.30
2018-02-09T23:09:32.955Z,10.97
2018-02-09T23:11:59.125Z,9.07
2018-02-09T23:14:25.360Z,7.10
2018-02-09T23:16:51.843Z,7.80
2018-02-09T23:19:18.051Z,7.63
2018-02-09T23:21:44.313Z,8.50
2018-02-09T23:24:10.473Z,10.30
2018-02-09T23:26:36.957Z,7.43
2018-02-09T23:29:03.457Z,8.13
2018-02-09T23:31:29.622Z,8.30
2018-02-09T23:33:55.803Z,7.53
2018-02-09T23:36:22.365Z,9.27
2018-02-09T23:38:48.524Z,9.17
2018-02-09T23:41:15.042Z,10.33
2018-02-09T23:43:41.274Z,9.93
2018-02-09T23:46:07.476Z,8.00
2018-02-09T23:48:34.337Z,8.33
2018-02-09T23:51:00.495Z,9.10
2018-02-09T23:53:26.730Z,10.20
2018-02-09T23:55:52.915Z,7.83
2018-02-09T23:58:19.215Z,7.83
